Time;durP1;ratioP1;P1;durP2;ratioP2;P2;SDS_P1;SDS_P2;PMS_P1;PMS_P2;Temp;Humidity;BMP_temperature;BMP_pressure;BME280_temperature;BME280_humidity;BME280_pressure;Samples;Min_cycle;Max_cycle;Signal;HPM_P1;HPM_P2
2022/02/03 00:04:38;;;;;;;55.47;20.50;;;8.10;99.90;;;;;;6152302;23;20029;-88
2022/02/03 00:07:10;;;;;;;60.63;21.23;;;7.50;99.90;;;;;;6127591;23;20112;-89
2022/02/03 00:26:16;;;;;;;88.88;25.88;;;7.70;99.90;;;;;;6151853;23;20633;-85
2022/02/03 00:28:46;;;;;;;93.38;25.50;;;7.60;99.90;;;;;;6128372;23;20018;-83
2022/02/03 00:31:33;;;;;;;84.28;24.92;;;7.60;99.90;;;;;;6128070;23;20476;-81
2022/02/03 00:34:09;;;;;;;86.13;23.17;;;7.90;99.90;;;;;;6153410;23;20047;-81
2022/02/03 00:37:02;;;;;;;78.22;23.48;;;7.60;99.90;;;;;;6128586;23;20642;-80
2022/02/03 00:50:36;;;;;;;58.00;19.08;;;7.80;99.90;;;;;;6152670;23;20026;-80
2022/02/03 00:53:06;;;;;;;61.30;20.08;;;7.70;99.90;;;;;;6151711;23;20108;-82
2022/02/03 00:55:46;;;;;;;56.22;20.33;;;7.70;99.90;;;;;;6152837;23;20018;-83
2022/02/03 00:58:16;;;;;;;54.28;19.75;;;7.70;99.90;;;;;;6129657;23;20084;-82
2022/02/03 01:00:44;;;;;;;53.63;20.02;;;7.70;99.90;;;;;;6153701;23;20085;-82
2022/02/03 01:03:14;;;;;;;51.90;19.65;;;7.70;99.90;;;;;;6154719;23;20013;-86
2022/02/03 01:05:42;;;;;;;51.70;18.45;;;7.80;99.90;;;;;;6148684;23;20017;-83
2022/02/03 01:08:20;;;;;;;58.70;20.85;;;7.80;99.90;;;;;;6126863;23;20017;-86
2022/02/03 01:10:55;;;;;;;63.10;21.83;;;8.20;99.90;;;;;;6155413;23;20049;-87
2022/02/03 01:13:48;;;;;;;64.70;22.08;;;7.90;99.90;;;;;;6129148;23;20036;-83
2022/02/03 01:16:37;;;;;;;69.93;23.33;;;7.80;99.90;;;;;;6152461;23;20022;-81
2022/02/03 01:43:58;;;;;;;43.78;18.25;;;7.90;99.90;;;;;;6127019;23;20017;-82
2022/02/03 01:46:51;;;;;;;38.13;15.82;;;8.30;99.90;;;;;;6102910;23;20020;-84
2022/02/03 01:51:37;;;;;;;46.00;17.38;;;7.90;99.90;;;;;;6128828;23;20016;-77
2022/02/03 01:52:16;;;;;;;44.17;17.73;;;8.10;99.90;;;;;;6153210;23;20020;-85
2022/02/03 01:54:46;;;;;;;48.05;17.58;;;7.90;99.90;;;;;;6102965;23;20056;-86
2022/02/03 01:57:13;;;;;;;49.30;19.02;;;8.10;99.90;;;;;;6102879;23;20337;-82
2022/02/03 01:59:40;;;;;;;47.65;18.25;;;7.90;99.90;;;;;;6102829;23;20437;-83
2022/02/03 02:02:07;;;;;;;55.22;20.08;;;7.90;99.90;;;;;;6126976;23;20053;-85
2022/02/03 02:04:58;;;;;;;62.85;22.67;;;7.90;99.90;;;;;;6126741;23;20017;-82
2022/02/03 02:07:37;;;;;;;63.97;23.48;;;7.90;99.90;;;;;;6125958;23;20307;-86
2022/02/03 02:13:12;;;;;;;71.85;25.52;;;8.00;99.90;;;;;;6128128;23;20021;-85
2022/02/03 02:16:00;;;;;;;74.25;26.48;;;8.00;99.90;;;;;;6103075;23;20167;-87
2022/02/03 02:37:54;;;;;;;89.32;31.13;;;8.00;99.90;;;;;;6126126;23;20620;-82
2022/02/03 02:40:49;;;;;;;81.28;29.48;;;8.10;99.90;;;;;;6127121;23;20010;-81
2022/02/03 02:43:32;;;;;;;76.63;29.20;;;8.40;99.90;;;;;;6102242;23;20017;-87
2022/02/03 02:46:32;;;;;;;76.35;29.85;;;7.90;99.90;;;;;;6102485;23;20383;-78
2022/02/03 02:49:26;;;;;;;86.35;29.13;;;8.00;99.90;;;;;;6107866;23;20107;-84
2022/02/03 02:52:08;;;;;;;79.65;29.95;;;7.90;99.90;;;;;;6103413;23;20024;-86
2022/02/03 03:03:30;;;;;;;75.95;29.25;;;8.40;99.90;;;;;;6127877;23;20018;-81
2022/02/03 03:35:55;;;;;;;62.92;26.52;;;7.90;99.90;;;;;;6153013;23;20318;-85
2022/02/03 03:38:34;;;;;;;72.60;27.35;;;8.00;99.90;;;;;;6104803;23;20044;-81
2022/02/03 03:41:02;;;;;;;66.20;26.50;;;7.90;99.90;;;;;;6133662;23;20014;-80
2022/02/03 03:43:36;;;;;;;69.18;26.77;;;8.40;99.90;;;;;;6160825;23;20052;-83
2022/02/03 03:46:19;;;;;;;63.47;26.67;;;8.40;99.90;;;;;;6130172;23;20036;-82
2022/02/03 03:49:09;;;;;;;70.93;27.65;;;7.90;99.90;;;;;;6153671;23;20096;-85
2022/02/03 03:51:52;;;;;;;67.32;27.20;;;7.90;99.90;;;;;;6127980;23;20044;-80
2022/02/03 03:54:41;;;;;;;75.47;28.15;;;7.90;99.90;;;;;;6152577;23;20089;-86
2022/02/03 04:51:53;;;;;;;47.45;21.70;;;7.80;99.90;;;;;;6122148;23;20300;-84
2022/02/03 04:57:27;;;;;;;47.05;21.27;;;7.70;99.90;;;;;;6128619;23;20045;-86
2022/02/03 05:03:11;;;;;;;50.10;20.73;;;7.70;99.90;;;;;;6128314;23;20014;-82
2022/02/03 05:09:27;;;;;;;38.47;20.05;;;7.80;99.90;;;;;;6127323;23;20018;-84
2022/02/03 05:12:42;;;;;;;48.55;23.65;;;7.80;99.90;;;;;;6128456;23;20017;-82
2022/02/03 05:20:58;;;;;;;58.42;29.38;;;8.40;99.90;;;;;;6155465;23;20547;-84
2022/02/03 05:44:14;;;;;;;77.57;32.90;;;8.60;99.90;;;;;;6039857;23;20026;-78
2022/02/03 06:03:18;;;;;;;80.97;37.08;;;7.90;99.90;;;;;;6018910;23;20026;-86
2022/02/03 06:05:56;;;;;;;83.40;38.40;;;7.90;99.90;;;;;;6049982;23;20354;-85
2022/02/03 06:08:32;;;;;;;93.50;36.85;;;7.80;99.90;;;;;;6129698;23;20017;-77
2022/02/03 06:21:39;;;;;;;84.00;37.70;;;8.70;99.90;;;;;;6128362;23;20422;-80
2022/02/03 06:24:19;;;;;;;80.40;35.50;;;7.90;99.90;;;;;;6102678;23;20422;-83
2022/02/03 06:29:33;;;;;;;76.18;34.65;;;7.90;99.90;;;;;;6130338;23;20018;-83
2022/02/03 06:31:59;;;;;;;84.47;38.08;;;8.10;99.90;;;;;;6151333;23;20020;-84
2022/02/03 06:34:25;;;;;;;96.68;40.03;;;8.50;99.90;;;;;;6151754;23;20326;-83
2022/02/03 06:36:53;;;;;;;84.80;39.20;;;7.90;99.90;;;;;;6151593;23;20307;-83
2022/02/03 06:39:27;;;;;;;82.85;39.45;;;7.90;99.90;;;;;;6151292;23;20398;-81
2022/02/03 06:41:57;;;;;;;79.22;37.38;;;7.80;99.90;;;;;;6126481;23;20010;-83
2022/02/03 06:44:37;;;;;;;82.50;39.47;;;7.90;99.90;;;;;;6151222;23;20155;-85
2022/02/03 06:47:22;;;;;;;89.35;40.13;;;7.90;99.90;;;;;;6125778;23;20018;-82
2022/02/03 06:52:30;;;;;;;87.95;40.83;;;7.90;99.90;;;;;;6149506;23;20025;-84
2022/02/03 06:57:47;;;;;;;90.80;39.13;;;7.80;99.90;;;;;;6151320;23;20013;-90
2022/02/03 07:00:23;;;;;;;92.97;39.58;;;8.50;99.90;;;;;;6150640;23;20033;-80
2022/02/03 07:02:52;;;;;;;72.53;30.35;;;7.90;99.90;;;;;;6149663;23;20016;-80
2022/02/03 07:05:18;;;;;;;88.03;35.45;;;7.80;99.90;;;;;;6125615;23;20438;-83
2022/02/03 07:07:44;;;;;;;89.18;36.95;;;7.90;99.90;;;;;;6123071;23;20077;-82
2022/02/03 07:10:11;;;;;;;87.03;36.45;;;7.80;99.90;;;;;;6151214;23;20099;-80
2022/02/03 07:12:38;;;;;;;92.25;37.60;;;7.80;99.90;;;;;;6125877;23;20100;-80
2022/02/03 07:15:05;;;;;;;74.22;34.33;;;7.90;99.90;;;;;;6125899;23;20053;-82
2022/02/03 07:17:34;;;;;;;88.88;36.33;;;7.80;99.90;;;;;;6125257;23;20112;-81
2022/02/03 07:20:04;;;;;;;81.75;34.15;;;7.70;99.90;;;;;;6150516;23;20013;-78
2022/02/03 07:22:30;;;;;;;76.97;32.28;;;7.80;99.90;;;;;;6125991;23;20013;-85
2022/02/03 07:24:57;;;;;;;81.35;33.47;;;7.70;99.90;;;;;;6151081;23;20025;-81
2022/02/03 07:27:25;;;;;;;69.75;31.90;;;7.80;99.90;;;;;;6102469;23;20096;-82
2022/02/03 07:29:52;;;;;;;76.88;31.02;;;7.70;99.90;;;;;;6152158;23;20338;-82
2022/02/03 07:32:19;;;;;;;70.65;29.98;;;7.70;99.90;;;;;;6100249;23;20018;-79
2022/02/03 07:34:55;;;;;;;67.47;30.75;;;8.60;99.90;;;;;;6151982;23;20485;-80
2022/02/03 07:37:23;;;;;;;55.63;26.13;;;7.70;99.90;;;;;;6124197;23;20124;-79
2022/02/03 07:39:50;;;;;;;61.15;27.63;;;7.80;99.90;;;;;;6127041;23;20025;-79
2022/02/03 07:42:16;;;;;;;59.38;25.33;;;7.80;99.90;;;;;;6125421;23;20481;-79
2022/02/03 07:44:43;;;;;;;61.90;24.60;;;7.70;99.90;;;;;;6125899;23;20092;-83
2022/02/03 07:47:09;;;;;;;55.33;25.08;;;7.70;99.90;;;;;;6102220;23;20075;-77
2022/02/03 07:49:35;;;;;;;45.20;21.38;;;8.10;99.90;;;;;;6127365;23;20382;-79
2022/02/03 07:52:02;;;;;;;53.83;24.58;;;7.80;99.90;;;;;;6102403;23;20089;-84
2022/02/03 07:54:29;;;;;;;56.70;25.13;;;8.40;99.90;;;;;;6125370;23;20021;-84
2022/02/03 07:56:55;;;;;;;60.58;25.83;;;7.80;99.90;;;;;;6101219;23;20010;-85
2022/02/03 07:59:27;;;;;;;50.83;25.08;;;7.70;99.90;;;;;;6125240;23;20018;-84
2022/02/03 08:01:53;;;;;;;48.03;23.70;;;7.70;99.90;;;;;;6101434;23;20052;-81
2022/02/03 08:04:23;;;;;;;54.33;26.95;;;7.90;99.90;;;;;;6125882;23;20022;-80
2022/02/03 08:06:49;;;;;;;67.10;27.70;;;7.80;99.90;;;;;;6125239;23;20014;-84
2022/02/03 08:10:05;;;;;;;59.65;26.15;;;7.80;99.90;;;;;;6101844;23;20025;-85
2022/02/03 08:12:06;;;;;;;59.08;27.23;;;7.90;99.90;;;;;;6107909;23;20022;-83
2022/02/03 08:14:41;;;;;;;57.55;27.90;;;7.90;99.90;;;;;;6126801;23;20045;-86
2022/02/03 08:17:12;;;;;;;53.00;27.35;;;7.90;99.90;;;;;;6126378;23;20020;-85
2022/02/03 08:19:57;;;;;;;45.47;25.67;;;8.70;99.90;;;;;;6128251;23;20013;-84
2022/02/03 08:22:51;;;;;;;56.13;28.50;;;7.80;99.90;;;;;;6103672;23;20010;-83
2022/02/03 08:32:47;;;;;;;54.05;29.02;;;7.80;99.90;;;;;;6152034;23;20017;-85
2022/02/03 08:38:01;;;;;;;50.55;29.42;;;7.80;99.90;;;;;;6128044;23;20072;-81
2022/02/03 08:40:43;;;;;;;48.55;28.35;;;8.10;99.90;;;;;;6152769;23;20018;-79
2022/02/03 08:43:10;;;;;;;57.47;29.70;;;7.80;99.90;;;;;;6154993;23;20013;-80
2022/02/03 08:45:36;;;;;;;57.03;29.23;;;7.80;99.90;;;;;;6151645;23;20040;-81
2022/02/03 08:48:02;;;;;;;50.75;28.67;;;7.80;99.90;;;;;;6128014;23;20287;-80
2022/02/03 08:50:28;;;;;;;49.05;27.95;;;7.80;99.90;;;;;;6153493;23;20639;-81
2022/02/03 08:58:36;;;;;;;54.90;28.88;;;7.80;99.90;;;;;;6096824;23;20018;-79
2022/02/03 09:41:58;;;;;;;32.55;17.33;;;7.90;99.90;;;;;;6151583;23;20073;-80
2022/02/03 10:00:30;;;;;;;31.73;14.13;;;7.90;99.90;;;;;;6147814;23;20727;-78
2022/02/03 10:03:03;;;;;;;30.75;14.63;;;7.90;99.90;;;;;;6150315;23;20021;-80
2022/02/03 10:05:35;;;;;;;28.35;15.90;;;7.90;99.90;;;;;;6150634;23;20014;-80
2022/02/03 10:08:02;;;;;;;27.80;14.10;;;8.00;99.90;;;;;;6150007;23;20021;-80
2022/02/03 10:10:29;;;;;;;27.40;13.73;;;8.00;99.90;;;;;;6147154;23;20017;-80
2022/02/03 10:12:55;;;;;;;33.08;14.23;;;8.00;99.90;;;;;;6096460;23;20478;-80
2022/02/03 10:15:21;;;;;;;25.58;13.55;;;8.10;99.90;;;;;;6123552;23;20017;-79
2022/02/03 10:17:50;;;;;;;30.67;14.60;;;8.00;99.90;;;;;;6122231;23;20013;-80
2022/02/03 10:20:19;;;;;;;28.95;14.80;;;8.40;99.90;;;;;;6122571;23;20446;-79
2022/02/03 10:22:51;;;;;;;28.13;14.13;;;8.00;99.90;;;;;;6146909;23;20116;-81
2022/02/03 10:25:34;;;;;;;26.83;14.77;;;8.00;99.90;;;;;;6149973;23;20469;-81
2022/02/03 10:28:05;;;;;;;27.55;14.70;;;8.10;99.90;;;;;;6125373;23;20052;-77
2022/02/03 10:30:56;;;;;;;27.25;14.38;;;8.00;99.90;;;;;;6147538;23;20481;-80
2022/02/03 10:33:37;;;;;;;30.20;14.43;;;8.00;99.90;;;;;;6126091;23;20017;-82
2022/02/03 10:36:24;;;;;;;33.78;15.82;;;8.00;99.90;;;;;;6127710;23;20014;-82
2022/02/03 10:42:11;;;;;;;32.50;14.70;;;8.10;99.90;;;;;;6010935;23;20122;-80
2022/02/03 11:08:23;;;;;;;30.35;17.30;;;8.00;99.90;;;;;;5982390;23;20035;-83
2022/02/03 11:10:54;;;;;;;28.90;16.52;;;7.80;99.90;;;;;;5983012;23;20240;-81
2022/02/03 11:13:25;;;;;;;36.28;16.98;;;7.80;99.90;;;;;;6006875;23;20075;-83
2022/02/03 11:15:53;;;;;;;27.23;15.98;;;7.80;99.90;;;;;;5983309;23;20060;-81
2022/02/03 11:18:20;;;;;;;35.42;17.85;;;8.00;99.90;;;;;;6027347;23;20537;-81
2022/02/03 11:20:45;;;;;;;27.88;16.75;;;7.60;99.90;;;;;;6043234;23;20023;-79
2022/02/03 11:26:01;;;;;;;40.33;18.17;;;7.70;99.90;;;;;;6067490;23;20030;-84
2022/02/03 11:31:18;;;;;;;28.85;17.10;;;7.80;99.90;;;;;;6067066;23;20054;-82
2022/02/03 11:34:48;;;;;;;34.10;18.50;;;7.70;99.90;;;;;;6068138;23;20018;-85
2022/02/03 11:39:50;;;;;;;27.65;17.73;;;7.90;99.90;;;;;;6067146;23;20068;-80
2022/02/03 11:56:17;;;;;;;30.38;15.00;;;7.70;99.90;;;;;;6152645;23;20022;-79
2022/02/03 12:15:29;;;;;;;26.05;13.73;;;8.00;99.90;;;;;;6152442;23;20021;-82
2022/02/03 12:20:56;;;;;;;22.30;13.40;;;7.80;99.90;;;;;;6151760;23;20021;-87
2022/02/03 12:26:21;;;;;;;21.08;12.63;;;7.90;99.90;;;;;;6151890;23;20084;-82
2022/02/03 12:28:55;;;;;;;20.30;12.30;;;7.90;99.90;;;;;;6150504;23;20025;-83
2022/02/03 12:31:53;;;;;;;28.35;11.55;;;8.80;99.90;;;;;;6151285;23;20029;-81
2022/02/03 12:37:14;;;;;;;20.85;11.63;;;8.10;99.90;;;;;;6151453;23;20024;-85
2022/02/03 12:39:55;;;;;;;20.17;11.65;;;8.70;99.90;;;;;;6126065;23;20022;-81
2022/02/03 12:42:52;;;;;;;22.70;11.43;;;7.90;99.90;;;;;;6150428;23;20029;-85
2022/02/03 12:45:23;;;;;;;21.08;11.18;;;8.60;99.90;;;;;;6128012;23;20025;-83
2022/02/03 12:47:51;;;;;;;19.40;10.95;;;8.80;99.90;;;;;;6151445;23;20331;-84
2022/02/03 12:50:33;;;;;;;23.00;11.13;;;8.70;99.90;;;;;;6126537;23;20024;-83
2022/02/03 12:53:00;;;;;;;18.75;11.40;;;8.00;99.90;;;;;;6150271;23;20707;-83
2022/02/03 12:55:40;;;;;;;16.88;10.57;;;8.00;99.90;;;;;;6151138;23;20033;-83
2022/02/03 12:58:13;;;;;;;20.05;10.95;;;8.00;99.90;;;;;;6156316;23;20468;-83
2022/02/03 13:00:45;;;;;;;19.00;11.65;;;8.10;99.90;;;;;;6130376;23;20422;-86
2022/02/03 13:03:13;;;;;;;20.77;10.70;;;8.10;99.90;;;;;;6127502;23;20016;-79
2022/02/03 13:05:41;;;;;;;18.38;10.60;;;8.10;99.90;;;;;;6153433;23;20024;-82
2022/02/03 13:08:08;;;;;;;19.92;10.30;;;8.10;99.90;;;;;;6127354;23;20018;-83
2022/02/03 13:10:37;;;;;;;18.10;10.32;;;8.00;99.90;;;;;;6127758;23;20037;-83
2022/02/03 13:13:42;;;;;;;21.42;10.48;;;8.10;99.90;;;;;;6155272;23;20018;-83
2022/02/03 13:16:11;;;;;;;18.48;10.25;;;8.20;99.90;;;;;;6152491;23;20026;-77
2022/02/03 13:18:51;;;;;;;18.88;9.93;;;8.00;99.90;;;;;;6102709;23;20017;-82
2022/02/03 13:26:56;;;;;;;15.38;8.77;;;8.10;99.90;;;;;;6068243;23;20130;-82
2022/02/03 13:30:00;;;;;;;16.02;8.98;;;8.10;99.90;;;;;;6044151;23;20022;-80
2022/02/03 13:32:20;;;;;;;18.02;9.85;;;8.10;99.90;;;;;;6045741;23;20304;-81
2022/02/03 13:35:12;;;;;;;17.10;10.10;;;8.10;99.90;;;;;;6043277;23;20018;-83
2022/02/03 13:37:45;;;;;;;15.55;9.77;;;8.10;99.90;;;;;;6064682;23;20016;-81
2022/02/03 13:40:17;;;;;;;19.23;9.90;;;7.90;99.90;;;;;;6067019;23;20018;-77
2022/02/03 13:42:47;;;;;;;21.70;10.35;;;8.00;99.90;;;;;;6066018;23;20101;-77
2022/02/03 13:45:14;;;;;;;17.55;10.10;;;7.90;99.90;;;;;;6066103;23;20022;-82
2022/02/03 13:47:41;;;;;;;15.80;9.50;;;7.90;99.90;;;;;;6043234;23;20105;-81
2022/02/03 13:50:21;;;;;;;15.70;9.52;;;8.00;99.90;;;;;;6042884;23;20018;-80
2022/02/03 13:52:54;;;;;;;14.80;9.23;;;7.90;99.90;;;;;;6040473;23;20018;-80
2022/02/03 14:15:12;;;;;;;8.55;6.15;;;8.10;99.90;;;;;;6149391;23;20037;-82
2022/02/03 14:18:05;;;;;;;14.02;6.20;;;8.10;99.90;;;;;;6150321;23;20143;-82
2022/02/03 14:28:16;;;;;;;7.05;4.60;;;8.00;99.90;;;;;;6126985;23;20025;-80
2022/02/03 14:30:46;;;;;;;6.22;4.15;;;8.00;99.90;;;;;;6153725;23;20032;-81
2022/02/03 14:33:16;;;;;;;5.65;4.43;;;8.00;99.90;;;;;;6102632;23;20044;-80
2022/02/03 14:35:43;;;;;;;5.97;4.30;;;8.00;99.90;;;;;;6102021;23;20013;-80
2022/02/03 14:38:32;;;;;;;5.07;3.78;;;7.90;99.90;;;;;;6100773;23;20068;-79
2022/02/03 14:41:08;;;;;;;5.45;4.10;;;8.00;99.90;;;;;;6127080;23;20009;-79
2022/02/03 14:43:34;;;;;;;4.18;3.75;;;7.90;99.90;;;;;;6154075;23;20016;-81
2022/02/03 14:46:01;;;;;;;5.15;4.65;;;8.00;99.90;;;;;;6102408;23;20018;-78
2022/02/03 14:48:27;;;;;;;5.97;5.38;;;8.00;99.90;;;;;;6153887;23;20013;-79
2022/02/03 14:50:56;;;;;;;6.05;5.20;;;8.00;99.90;;;;;;6126160;23;20345;-82
2022/02/03 14:53:47;;;;;;;6.28;5.50;;;8.00;99.90;;;;;;6101004;23;20092;-79
2022/02/03 14:59:09;;;;;;;9.05;5.60;;;8.00;99.90;;;;;;6010290;23;20019;-78
2022/02/03 15:01:35;;;;;;;9.05;6.22;;;7.90;99.90;;;;;;6034684;23;20442;-82
2022/02/03 15:04:05;;;;;;;8.93;5.55;;;7.80;99.90;;;;;;6010715;23;20019;-78
2022/02/03 15:06:53;;;;;;;9.10;5.70;;;7.80;99.90;;;;;;6009312;23;20019;-81
2022/02/03 15:09:33;;;;;;;6.68;5.20;;;7.70;99.90;;;;;;6009667;23;20111;-81
2022/02/03 15:12:21;;;;;;;7.82;5.60;;;7.70;99.90;;;;;;6011524;23;20098;-81
2022/02/03 15:14:47;;;;;;;7.90;5.80;;;7.70;99.90;;;;;;6011149;23;20023;-85
2022/02/03 15:17:12;;;;;;;9.02;5.85;;;7.70;99.90;;;;;;6010486;23;20440;-85
2022/02/03 15:19:38;;;;;;;9.18;5.95;;;7.60;99.90;;;;;;6010235;23;20053;-84
2022/02/03 15:22:04;;;;;;;9.55;6.10;;;7.50;99.90;;;;;;6008889;23;20019;-82
2022/02/03 15:24:29;;;;;;;9.57;6.30;;;7.50;99.90;;;;;;6009558;23;20047;-80
2022/02/03 15:26:59;;;;;;;12.00;6.32;;;7.60;99.90;;;;;;6030414;23;20029;-80
2022/02/03 15:29:29;;;;;;;9.88;6.28;;;7.50;99.90;;;;;;6038249;23;20125;-84
2022/02/03 15:31:56;;;;;;;10.77;6.57;;;7.50;99.90;;;;;;6038472;23;20019;-83
2022/02/03 15:34:22;;;;;;;14.60;7.20;;;7.50;99.90;;;;;;6039719;23;20015;-84
2022/02/03 15:36:52;;;;;;;14.75;7.07;;;7.50;99.90;;;;;;6125310;23;20076;-84
2022/02/03 15:39:23;;;;;;;15.68;7.82;;;7.50;99.90;;;;;;6149918;23;20013;-83
2022/02/03 15:41:52;;;;;;;16.13;7.50;;;7.60;99.90;;;;;;6150701;23;20025;-84
2022/02/03 15:44:18;;;;;;;12.05;6.82;;;7.70;99.90;;;;;;6150549;23;20092;-81
2022/02/03 15:46:58;;;;;;;14.93;6.70;;;7.50;99.90;;;;;;6125269;23;20551;-82
2022/02/03 16:03:08;;;;;;;16.35;7.97;;;7.40;99.90;;;;;;6148275;23;20053;-81
2022/02/03 16:18:59;;;;;;;18.23;8.70;;;7.30;99.90;;;;;;6149062;23;20029;-81
2022/02/03 16:21:35;;;;;;;18.27;8.77;;;7.30;99.90;;;;;;6147865;23;20017;-81
2022/02/03 16:24:19;;;;;;;14.48;9.43;;;7.20;99.90;;;;;;6148687;23;20461;-83
2022/02/03 16:54:08;;;;;;;19.58;9.65;;;7.60;99.90;;;;;;6126938;23;20391;-78
2022/02/03 16:56:34;;;;;;;18.40;9.95;;;7.00;99.90;;;;;;6102850;23;20021;-80
2022/02/03 16:59:00;;;;;;;18.17;9.98;;;7.00;99.90;;;;;;6126051;23;20009;-80
2022/02/03 17:01:30;;;;;;;20.48;10.27;;;7.10;99.90;;;;;;6126788;23;20089;-84
2022/02/03 17:04:09;;;;;;;19.17;9.93;;;7.20;99.90;;;;;;6103336;23;20036;-83
2022/02/03 17:06:34;;;;;;;17.77;10.13;;;7.10;99.90;;;;;;6127025;23;20021;-77
2022/02/03 17:09:00;;;;;;;17.25;10.15;;;7.10;99.90;;;;;;6126316;23;20010;-76
2022/02/03 17:11:26;;;;;;;23.33;11.00;;;7.50;99.90;;;;;;6103260;23;20088;-76
2022/02/03 17:13:51;;;;;;;18.98;10.65;;;7.00;99.90;;;;;;6127324;23;20511;-79
2022/02/03 17:16:22;;;;;;;19.17;11.55;;;7.00;99.90;;;;;;6128077;23;20025;-79
2022/02/03 17:18:50;;;;;;;18.13;12.45;;;6.90;99.90;;;;;;6126599;23;20338;-79
2022/02/03 17:21:15;;;;;;;20.50;11.93;;;6.90;99.90;;;;;;6102791;23;20093;-75
2022/02/03 17:23:42;;;;;;;23.02;12.68;;;7.10;99.90;;;;;;6126233;23;20040;-79
2022/02/03 17:26:15;;;;;;;20.77;13.13;;;7.00;99.90;;;;;;6096586;23;20415;-82
2022/02/03 17:28:51;;;;;;;25.33;12.55;;;6.90;99.90;;;;;;6097984;23;20022;-84
2022/02/03 18:09:09;;;;;;;24.50;14.10;;;7.00;99.90;;;;;;6097113;23;20022;-80
2022/02/03 18:33:42;;;;;;;29.52;15.30;;;7.00;99.90;;;;;;5926536;23;20145;-81
2022/02/03 18:36:06;;;;;;;25.25;15.27;;;6.90;99.90;;;;;;5927851;24;20092;-83
2022/02/03 18:57:06;;;;;;;35.47;17.35;;;7.00;99.90;;;;;;5925916;24;20039;-81
2022/02/03 19:27:58;;;;;;;33.55;16.35;;;6.80;99.90;;;;;;6095276;23;20026;-81
2022/02/03 20:12:13;;;;;;;34.92;17.88;;;7.00;99.90;;;;;;6185087;23;20024;-79
2022/02/03 20:14:39;;;;;;;34.40;16.70;;;7.80;99.90;;;;;;6186817;23;20008;-80
2022/02/03 20:17:07;;;;;;;36.92;17.50;;;7.10;99.90;;;;;;6187396;23;20322;-81
2022/02/03 20:19:36;;;;;;;36.00;16.98;;;7.00;99.90;;;;;;6188106;23;20305;-80
2022/02/03 20:22:03;;;;;;;34.30;17.52;;;7.00;99.90;;;;;;6186199;23;20078;-79
2022/02/03 20:24:29;;;;;;;31.98;15.43;;;7.10;99.90;;;;;;6186859;23;20009;-80
2022/02/03 20:26:54;;;;;;;46.45;17.70;;;7.30;99.90;;;;;;6186549;23;20051;-79
2022/02/03 20:29:20;;;;;;;39.03;17.55;;;7.10;99.90;;;;;;6187017;23;20092;-78
2022/02/03 20:31:46;;;;;;;36.78;16.98;;;7.10;99.90;;;;;;6186050;23;20016;-78
2022/02/03 20:34:11;;;;;;;37.88;17.70;;;7.00;99.90;;;;;;6186065;23;20013;-78
2022/02/03 20:36:37;;;;;;;41.00;17.65;;;7.20;99.90;;;;;;6186011;23;20043;-80
2022/02/03 20:39:05;;;;;;;44.45;18.05;;;7.00;99.90;;;;;;6187088;23;20013;-82
2022/02/03 20:41:31;;;;;;;44.90;18.40;;;7.10;99.90;;;;;;6186371;23;20084;-82
2022/02/03 20:43:56;;;;;;;38.00;17.33;;;7.00;99.90;;;;;;6160833;23;20032;-82
2022/02/03 20:46:24;;;;;;;45.38;17.20;;;7.00;99.90;;;;;;6161097;23;20017;-83
2022/02/03 20:48:50;;;;;;;36.60;17.63;;;7.70;99.90;;;;;;6187169;23;20014;-82
2022/02/03 20:51:18;;;;;;;44.28;17.80;;;6.90;99.90;;;;;;6186244;23;20009;-82
2022/02/03 20:53:45;;;;;;;40.70;17.73;;;7.20;99.90;;;;;;6185372;23;20107;-83
2022/02/03 20:56:12;;;;;;;40.45;17.88;;;6.90;99.90;;;;;;6160716;23;20328;-82
2022/02/03 20:58:39;;;;;;;36.60;18.20;;;7.00;99.90;;;;;;6186281;23;20585;-82
2022/02/03 21:01:40;;;;;;;44.28;19.27;;;7.00;99.90;;;;;;6186645;23;20012;-81
2022/02/03 21:04:07;;;;;;;46.30;17.25;;;6.90;99.90;;;;;;6185662;23;20429;-82
2022/02/03 21:06:37;;;;;;;38.75;16.45;;;6.90;99.90;;;;;;6146397;23;20024;-81
2022/02/03 21:09:05;;;;;;;44.28;17.70;;;6.90;99.90;;;;;;6210288;23;20075;-81
2022/02/03 21:11:32;;;;;;;46.50;17.60;;;6.90;99.90;;;;;;6186883;23;20025;-81
2022/02/03 21:13:58;;;;;;;38.15;16.00;;;7.20;99.90;;;;;;6162242;23;20398;-81
2022/02/03 21:16:23;;;;;;;42.75;17.15;;;6.90;99.90;;;;;;6160985;23;20044;-80
2022/02/03 21:18:50;;;;;;;41.80;16.77;;;6.90;99.90;;;;;;6137199;23;20016;-80
2022/02/03 21:21:15;;;;;;;35.30;17.98;;;7.00;99.90;;;;;;6186962;23;20036;-80
2022/02/03 21:23:41;;;;;;;39.92;17.77;;;7.00;99.90;;;;;;6186233;23;20013;-78
2022/02/03 21:26:15;;;;;;;39.80;17.02;;;7.00;99.90;;;;;;6185983;23;20037;-78
2022/02/03 21:28:46;;;;;;;42.10;17.67;;;7.00;99.90;;;;;;6186563;23;20016;-77
2022/02/03 21:31:11;;;;;;;37.47;17.48;;;7.00;99.90;;;;;;6213790;23;20016;-79
2022/02/03 21:33:46;;;;;;;39.83;16.92;;;6.90;99.90;;;;;;6185421;23;20044;-79
2022/02/03 21:36:13;;;;;;;42.83;18.10;;;7.00;99.90;;;;;;6161840;23;20017;-81
2022/02/03 21:38:41;;;;;;;43.85;17.77;;;6.90;99.90;;;;;;6185210;23;20016;-80
2022/02/03 21:41:08;;;;;;;45.50;17.63;;;7.20;99.90;;;;;;6213519;23;20090;-79
2022/02/03 21:43:34;;;;;;;39.05;17.42;;;7.20;99.90;;;;;;6185894;23;20013;-80
2022/02/03 21:46:00;;;;;;;38.97;17.67;;;7.00;99.90;;;;;;6185616;23;20048;-80
2022/02/03 21:48:26;;;;;;;38.00;17.88;;;6.90;99.90;;;;;;6160977;23;20429;-79
2022/02/03 21:50:54;;;;;;;50.97;17.95;;;7.20;99.90;;;;;;6209408;23;20019;-83
2022/02/03 21:53:24;;;;;;;36.75;18.17;;;6.90;99.90;;;;;;6159856;23;20023;-82
2022/02/03 21:55:54;;;;;;;40.47;17.77;;;6.90;99.90;;;;;;6184170;23;20017;-81
2022/02/03 21:58:25;;;;;;;43.60;18.08;;;7.00;99.90;;;;;;6159371;23;20024;-82
2022/02/03 22:01:00;;;;;;;39.70;17.20;;;6.90;99.90;;;;;;6160295;23;20009;-79
2022/02/03 22:03:28;;;;;;;46.72;17.63;;;6.90;99.90;;;;;;6185105;23;20052;-77
2022/02/03 22:05:55;;;;;;;41.13;17.83;;;6.90;99.90;;;;;;6160755;23;20103;-81
2022/02/03 22:08:21;;;;;;;41.78;18.05;;;6.90;99.90;;;;;;6184587;23;20448;-81
2022/02/03 22:10:47;;;;;;;40.03;18.83;;;6.90;99.90;;;;;;6161236;23;20082;-78
2022/02/03 22:13:13;;;;;;;48.55;18.73;;;6.90;99.90;;;;;;6185653;23;20012;-82
2022/02/03 22:15:40;;;;;;;43.40;19.80;;;6.90;99.90;;;;;;6186041;23;20119;-82
2022/02/03 22:18:13;;;;;;;34.70;17.67;;;6.90;99.90;;;;;;6159927;23;20020;-82
2022/02/03 22:21:00;;;;;;;39.42;17.48;;;6.90;99.90;;;;;;6159741;23;20032;-81
2022/02/03 22:23:40;;;;;;;38.55;17.95;;;6.90;99.90;;;;;;6183372;23;20312;-79
2022/02/03 22:26:48;;;;;;;41.25;16.55;;;7.00;99.90;;;;;;6184237;23;20441;-80
2022/02/03 22:44:41;;;;;;;33.83;16.77;;;6.90;99.90;;;;;;6184155;23;20098;-78
2022/02/03 22:47:23;;;;;;;34.17;16.05;;;6.80;99.90;;;;;;6159189;23;20012;-84
2022/02/03 22:49:49;;;;;;;37.50;17.35;;;6.80;99.90;;;;;;6163651;23;20015;-81
2022/02/03 22:52:18;;;;;;;39.78;16.98;;;6.80;99.90;;;;;;6157580;23;20418;-82
2022/02/03 22:54:45;;;;;;;34.15;17.23;;;6.70;99.90;;;;;;6210608;23;20023;-81
2022/02/03 22:57:10;;;;;;;35.10;17.38;;;6.80;99.90;;;;;;6184192;23;20016;-83
2022/02/03 23:02:14;;;;;;;37.75;16.83;;;6.70;99.90;;;;;;6184460;23;20139;-80
2022/02/03 23:04:40;;;;;;;39.53;18.35;;;6.70;99.90;;;;;;6182794;23;20290;-85
2022/02/03 23:07:19;;;;;;;31.77;17.10;;;6.60;99.90;;;;;;6159930;23;20099;-80
2022/02/03 23:10:00;;;;;;;33.88;17.52;;;6.60;99.90;;;;;;6210156;23;20103;-81
2022/02/03 23:20:14;;;;;;;39.53;18.35;;;6.40;99.90;;;;;;6186009;23;20021;-81
2022/02/03 23:22:42;;;;;;;;;;;6.50;99.90;;;;;;6184913;23;20017;-81
2022/02/03 23:25:13;;;;;;;32.45;17.80;;;6.50;99.90;;;;;;6161326;23;19912;-79
2022/02/03 23:30:07;;;;;;;35.45;17.67;;;6.50;99.90;;;;;;6186184;23;20408;-80
2022/02/03 23:32:34;;;;;;;29.70;18.13;;;6.50;99.90;;;;;;6161424;23;20051;-81
2022/02/03 23:37:35;;;;;;;38.05;19.98;;;6.60;99.90;;;;;;6184989;23;20048;-81
2022/02/03 23:40:08;;;;;;;33.05;19.88;;;6.50;99.90;;;;;;6211336;23;20044;-81
